createdAt,value
2018-09-18T00:00:51.813Z,13.87
2018-09-18T00:03:20.000Z,14.80
2018-09-18T00:05:48.209Z,17.10
2018-09-18T00:08:16.950Z,14.47
2018-09-18T00:10:45.442Z,28.30
2018-09-18T00:13:14.051Z,10.27
2018-09-18T00:15:42.245Z,10.90
2018-09-18T00:18:10.409Z,10.40
2018-09-18T00:20:39.826Z,9.17
2018-09-18T00:23:08.022Z,9.90
2018-09-18T00:25:36.611Z,11.83
2018-09-18T00:28:04.840Z,10.80
2018-09-18T00:30:33.022Z,16.40
2018-09-18T00:33:01.240Z,11.53
2018-09-18T00:35:29.400Z,14.40
2018-09-18T00:37:57.580Z,10.17
2018-09-18T00:40:25.750Z,10.63
2018-09-18T00:42:53.978Z,11.90
2018-09-18T00:45:22.185Z,9.60
2018-09-18T00:47:50.341Z,12.87
2018-09-18T00:50:18.501Z,10.17
2018-09-18T00:52:46.652Z,9.57
2018-09-18T00:55:14.822Z,10.30
2018-09-18T00:57:43.010Z,17.63
2018-09-18T01:00:11.195Z,8.87
2018-09-18T01:02:39.313Z,7.40
2018-09-18T01:05:07.471Z,10.10
2018-09-18T01:07:35.747Z,9.50
2018-09-18T01:10:03.918Z,14.23
2018-09-18T01:12:32.063Z,10.30
2018-09-18T01:15:00.225Z,9.00
2018-09-18T01:17:28.397Z,7.30
2018-09-18T01:19:56.567Z,13.03
2018-09-18T01:22:24.723Z,13.47
2018-09-18T01:24:52.937Z,12.17
2018-09-18T01:27:21.090Z,11.20
2018-09-18T01:29:49.227Z,7.30
2018-09-18T01:32:17.408Z,10.63
2018-09-18T01:34:45.570Z,11.63
2018-09-18T01:37:13.676Z,6.03
2018-09-18T01:39:41.810Z,6.93
2018-09-18T01:42:09.962Z,14.77
2018-09-18T01:44:38.159Z,10.80
2018-09-18T01:47:06.341Z,8.40
2018-09-18T01:49:34.468Z,15.20
2018-09-18T01:52:02.712Z,7.67
2018-09-18T01:54:30.893Z,7.63
2018-09-18T01:56:58.985Z,7.03
2018-09-18T01:59:27.112Z,9.17
2018-09-18T02:01:55.275Z,8.43
2018-09-18T02:04:29.831Z,9.13
2018-09-18T02:06:57.958Z,6.40
2018-09-18T02:09:26.150Z,7.47
2018-09-18T02:11:54.316Z,8.30
2018-09-18T02:14:22.446Z,10.63
2018-09-18T02:16:50.679Z,14.27
2018-09-18T02:19:18.828Z,6.10
2018-09-18T02:21:46.974Z,6.60
2018-09-18T02:24:15.156Z,9.10
2018-09-18T02:26:43.298Z,8.43
2018-09-18T02:29:11.444Z,18.03
2018-09-18T02:31:39.608Z,8.27
2018-09-18T02:34:07.782Z,8.43
2018-09-18T02:36:35.956Z,10.50
2018-09-18T02:39:06.694Z,9.20
2018-09-18T02:41:36.131Z,9.40
2018-09-18T02:44:04.382Z,7.50
2018-09-18T02:46:32.613Z,10.53
2018-09-18T02:49:00.756Z,11.57
2018-09-18T02:51:28.902Z,8.30
2018-09-18T02:53:58.522Z,9.73
2018-09-18T02:56:26.719Z,11.50
2018-09-18T02:58:54.846Z,7.57
2018-09-18T03:01:22.985Z,7.90
2018-09-18T03:03:52.149Z,10.80
2018-09-18T03:06:20.469Z,12.10
2018-09-18T03:08:48.651Z,8.53
2018-09-18T03:11:16.835Z,7.87
2018-09-18T03:13:46.094Z,11.97
2018-09-18T03:16:14.294Z,9.07
2018-09-18T03:18:42.526Z,10.33
2018-09-18T03:21:10.700Z,6.70
2018-09-18T03:23:39.352Z,8.97
2018-09-18T03:26:07.534Z,11.33
2018-09-18T03:28:35.864Z,8.77
2018-09-18T03:31:03.984Z,10.53
2018-09-18T03:33:32.146Z,8.37
2018-09-18T03:36:00.282Z,11.37
2018-09-18T03:38:29.356Z,12.63
2018-09-18T03:40:57.552Z,8.73
2018-09-18T03:43:25.703Z,12.03
2018-09-18T03:45:53.892Z,12.07
2018-09-18T03:48:22.084Z,9.53
2018-09-18T03:50:50.272Z,7.90
2018-09-18T03:53:18.421Z,9.30
2018-09-18T03:55:46.618Z,9.53
2018-09-18T03:58:14.778Z,14.80
2018-09-18T04:00:42.946Z,9.30
2018-09-18T04:03:11.099Z,15.97
2018-09-18T04:05:39.226Z,13.50
2018-09-18T04:08:07.385Z,17.07
2018-09-18T04:10:35.508Z,21.10
2018-09-18T04:13:03.660Z,17.80
2018-09-18T04:15:31.806Z,23.63
2018-09-18T04:18:00.036Z,21.23
2018-09-18T04:20:28.250Z,22.77
2018-09-18T04:22:56.447Z,25.07
2018-09-18T04:25:24.766Z,26.63
2018-09-18T04:27:52.921Z,21.67
2018-09-18T04:30:21.098Z,20.60
2018-09-18T04:32:49.376Z,21.60
2018-09-18T04:35:18.604Z,23.83
2018-09-18T04:37:46.792Z,24.77
2018-09-18T04:40:14.958Z,31.83
2018-09-18T04:42:43.141Z,33.00
2018-09-18T04:45:11.326Z,44.37
2018-09-18T04:47:41.278Z,32.83
2018-09-18T04:50:09.444Z,36.30
2018-09-18T04:52:37.577Z,34.90
2018-09-18T04:55:05.851Z,32.83
2018-09-18T04:57:37.041Z,38.10
2018-09-18T05:00:05.894Z,30.97
2018-09-18T05:02:34.032Z,35.17
2018-09-18T05:05:02.192Z,26.40
2018-09-18T05:07:30.326Z,29.47
2018-09-18T05:09:58.534Z,13.10
2018-09-18T05:12:26.682Z,11.90
2018-09-18T05:14:54.880Z,15.50
2018-09-18T05:17:23.140Z,12.80
2018-09-18T05:19:51.328Z,17.20
2018-09-18T05:22:19.501Z,13.77
2018-09-18T05:24:47.702Z,10.97
2018-09-18T05:27:15.894Z,14.97
2018-09-18T05:29:44.070Z,9.90
2018-09-18T05:32:12.616Z,11.70
2018-09-18T05:34:40.780Z,11.57
2018-09-18T05:37:09.084Z,10.13
2018-09-18T05:39:37.338Z,10.87
2018-09-18T05:42:05.579Z,15.40
2018-09-18T05:44:33.758Z,9.47
2018-09-18T05:47:01.932Z,12.00
2018-09-18T05:49:30.985Z,17.37
2018-09-18T05:51:59.522Z,16.10
2018-09-18T05:54:27.651Z,17.70
2018-09-18T05:56:55.845Z,12.30
2018-09-18T05:59:24.057Z,9.43
2018-09-18T06:01:52.254Z,14.20
2018-09-18T06:04:20.450Z,14.90
2018-09-18T06:06:48.636Z,19.63
2018-09-18T06:09:16.831Z,11.23
2018-09-18T06:11:45.440Z,15.43
2018-09-18T06:14:13.590Z,16.33
2018-09-18T06:16:41.747Z,20.17
2018-09-18T06:19:09.973Z,20.60
2018-09-18T06:21:38.137Z,18.53
2018-09-18T06:24:06.442Z,20.20
2018-09-18T06:26:34.586Z,16.80
2018-09-18T06:29:02.755Z,12.53
2018-09-18T06:31:30.905Z,14.23
2018-09-18T06:33:59.061Z,14.13
2018-09-18T06:36:27.205Z,14.77
2018-09-18T06:38:55.517Z,15.70
2018-09-18T06:41:23.686Z,16.50
2018-09-18T06:43:52.027Z,21.00
2018-09-18T06:46:20.199Z,15.47
2018-09-18T06:48:48.383Z,15.37
2018-09-18T06:51:16.547Z,18.30
2018-09-18T06:53:44.745Z,20.23
2018-09-18T06:56:12.889Z,25.93
2018-09-18T06:58:41.041Z,23.90
2018-09-18T07:01:09.216Z,13.63
2018-09-18T07:03:37.359Z,20.53
2018-09-18T07:06:05.693Z,18.30
2018-09-18T07:08:34.016Z,19.73
2018-09-18T07:11:02.183Z,24.97
2018-09-18T07:13:30.539Z,24.17
2018-09-18T07:15:59.377Z,24.37
2018-09-18T07:18:27.538Z,12.70
2018-09-18T07:20:55.714Z,18.50
2018-09-18T07:23:23.879Z,41.33
2018-09-18T07:25:52.135Z,24.53
2018-09-18T07:28:20.328Z,23.00
2018-09-18T07:30:48.491Z,27.37
2018-09-18T07:33:16.709Z,23.27
2018-09-18T07:35:44.905Z,13.33
2018-09-18T07:38:13.059Z,20.30
2018-09-18T07:40:42.076Z,22.90
2018-09-18T07:43:10.405Z,14.27
2018-09-18T07:45:38.567Z,22.70
2018-09-18T07:48:06.792Z,19.77
2018-09-18T07:50:34.984Z,15.17
2018-09-18T07:53:03.324Z,19.40
2018-09-18T07:55:31.496Z,16.93
2018-09-18T07:57:59.882Z,20.47
2018-09-18T08:00:28.020Z,11.60
2018-09-18T08:02:56.186Z,14.93
2018-09-18T08:05:24.406Z,20.23
2018-09-18T08:07:52.661Z,19.43
2018-09-18T08:10:20.844Z,16.50
2018-09-18T08:12:49.059Z,18.27
2018-09-18T08:15:17.253Z,24.37
2018-09-18T08:17:45.486Z,17.23
2018-09-18T08:20:13.702Z,19.17
2018-09-18T08:22:41.844Z,12.13
2018-09-18T08:25:10.029Z,14.57
2018-09-18T08:27:38.200Z,24.80
2018-09-18T08:30:07.556Z,15.87
2018-09-18T08:32:35.856Z,14.70
2018-09-18T08:35:03.924Z,18.30
2018-09-18T08:37:32.082Z,12.87
2018-09-18T08:40:00.331Z,16.03
2018-09-18T08:42:28.415Z,28.07
2018-09-18T08:44:56.618Z,15.00
2018-09-18T08:47:25.552Z,32.17
2018-09-18T08:49:53.736Z,17.63
2018-09-18T08:52:21.903Z,18.47
2018-09-18T08:54:50.099Z,9.73
2018-09-18T08:57:18.394Z,15.50
2018-09-18T08:59:47.561Z,14.67
2018-09-18T09:02:15.783Z,12.50
2018-09-18T09:04:44.039Z,17.03
2018-09-18T09:07:12.213Z,8.60
2018-09-18T09:09:40.445Z,13.27
2018-09-18T09:12:08.606Z,15.37
2018-09-18T09:14:36.836Z,14.83
2018-09-18T09:17:05.010Z,15.47
2018-09-18T09:19:33.266Z,9.20
2018-09-18T09:22:01.489Z,13.23
2018-09-18T09:24:29.818Z,8.03
2018-09-18T09:26:58.053Z,17.77
2018-09-18T09:29:26.256Z,15.20
2018-09-18T09:31:54.412Z,13.57
2018-09-18T09:34:22.588Z,16.57
2018-09-18T09:36:50.832Z,6.97
2018-09-18T09:39:18.962Z,13.33
2018-09-18T09:41:47.170Z,21.13
2018-09-18T09:44:15.369Z,15.00
2018-09-18T09:46:43.562Z,13.63
2018-09-18T09:49:11.744Z,13.60
2018-09-18T09:51:40.030Z,17.60
2018-09-18T09:54:08.218Z,21.53
2018-09-18T09:56:36.410Z,14.43
2018-09-18T09:59:04.652Z,11.83
2018-09-18T10:01:39.564Z,14.70
2018-09-18T10:04:08.070Z,12.73
2018-09-18T10:06:36.300Z,10.10
2018-09-18T10:09:06.636Z,13.83
2018-09-18T10:11:34.784Z,10.70
2018-09-18T10:14:04.056Z,8.90
2018-09-18T10:16:32.208Z,9.60
2018-09-18T10:19:00.411Z,11.17
2018-09-18T10:21:28.566Z,12.83
2018-09-18T10:23:56.870Z,14.43
2018-09-18T10:26:25.924Z,13.87
2018-09-18T10:28:54.015Z,10.80
2018-09-18T10:31:22.308Z,8.50
2018-09-18T10:33:50.550Z,9.70
2018-09-18T10:36:18.678Z,12.83
2018-09-18T10:38:46.896Z,13.50
2018-09-18T10:41:15.125Z,8.10
2018-09-18T10:43:43.280Z,7.70
2018-09-18T10:46:11.449Z,9.97
2018-09-18T10:48:45.021Z,6.17
2018-09-18T10:51:13.244Z,7.20
2018-09-18T10:53:41.472Z,6.60
2018-09-18T10:56:09.648Z,10.43
2018-09-18T10:58:37.868Z,13.60
2018-09-18T11:01:06.230Z,5.50
2018-09-18T11:03:34.384Z,9.00
2018-09-18T11:06:02.619Z,5.37
2018-09-18T11:08:30.812Z,5.80
2018-09-18T11:10:58.990Z,6.10
2018-09-18T11:13:27.192Z,10.33
2018-09-18T11:15:55.440Z,6.20
2018-09-18T11:18:23.584Z,5.37
2018-09-18T11:20:51.755Z,5.27
2018-09-18T11:23:19.963Z,8.43
2018-09-18T11:25:48.131Z,11.03
2018-09-18T11:28:16.323Z,5.07
2018-09-18T11:30:44.494Z,8.30
2018-09-18T11:33:12.705Z,11.33
2018-09-18T11:35:40.950Z,6.80
2018-09-18T11:38:09.538Z,5.57
2018-09-18T11:40:37.718Z,10.77
2018-09-18T11:43:05.910Z,6.00
2018-09-18T11:45:34.086Z,4.80
2018-09-18T11:48:02.256Z,5.70
2018-09-18T11:50:30.452Z,6.87
2018-09-18T11:52:59.470Z,6.10
2018-09-18T11:55:27.582Z,5.50
2018-09-18T11:57:55.725Z,6.63
2018-09-18T12:00:23.881Z,8.53
2018-09-18T12:02:52.103Z,7.50
2018-09-18T12:05:20.292Z,9.60
2018-09-18T12:07:48.500Z,4.37
2018-09-18T12:10:16.682Z,5.63
2018-09-18T12:12:46.252Z,4.57
2018-09-18T12:15:14.506Z,16.53
2018-09-18T12:17:42.659Z,6.00
2018-09-18T12:20:11.071Z,5.13
2018-09-18T12:22:39.249Z,5.20
2018-09-18T12:25:07.426Z,4.30
2018-09-18T12:27:35.671Z,5.77
2018-09-18T12:30:04.419Z,6.93
2018-09-18T12:32:32.616Z,5.00
2018-09-18T12:35:00.772Z,6.23
2018-09-18T12:37:29.028Z,6.60
2018-09-18T12:39:57.152Z,7.43
2018-09-18T12:42:25.955Z,20.20
2018-09-18T12:44:54.114Z,26.70
2018-09-18T12:47:22.286Z,6.23
2018-09-18T12:49:50.631Z,5.47
2018-09-18T12:52:19.149Z,11.03
2018-09-18T12:54:47.630Z,10.40
2018-09-18T12:57:16.032Z,6.80
2018-09-18T12:59:44.003Z,4.53
2018-09-18T13:02:12.122Z,9.40
2018-09-18T13:04:40.306Z,4.43
2018-09-18T13:07:08.698Z,18.37
2018-09-18T13:09:36.742Z,5.23
2018-09-18T13:12:05.032Z,7.03
2018-09-18T13:14:33.156Z,5.53
2018-09-18T13:17:01.347Z,7.93
2018-09-18T13:19:29.541Z,7.10
2018-09-18T13:21:57.789Z,8.27
2018-09-18T13:24:26.055Z,10.00
2018-09-18T13:26:54.332Z,11.57
2018-09-18T13:29:22.537Z,11.73
2018-09-18T13:31:50.751Z,11.63
2018-09-18T13:34:18.956Z,11.80
2018-09-18T13:36:47.126Z,6.60
2018-09-18T13:39:15.304Z,18.60
2018-09-18T13:41:43.624Z,9.43
2018-09-18T13:44:11.869Z,12.90
2018-09-18T13:46:40.186Z,10.13
2018-09-18T13:49:08.472Z,14.80
2018-09-18T13:51:36.680Z,3.83
2018-09-18T13:54:04.888Z,6.53
2018-09-18T13:56:33.220Z,8.53
2018-09-18T13:59:01.215Z,7.20
2018-09-18T14:01:29.479Z,5.57
2018-09-18T14:03:57.610Z,7.63
2018-09-18T14:06:25.850Z,10.13
2018-09-18T14:08:54.141Z,7.20
2018-09-18T14:11:22.344Z,9.83
2018-09-18T14:13:50.616Z,8.17
2018-09-18T14:16:18.814Z,7.20
2018-09-18T14:18:47.058Z,5.70
2018-09-18T14:21:15.267Z,7.20
2018-09-18T14:23:43.604Z,7.77
2018-09-18T14:26:11.871Z,8.00
2018-09-18T14:28:40.090Z,8.50
2018-09-18T14:31:08.247Z,16.20
2018-09-18T14:33:36.876Z,12.27
2018-09-18T14:36:05.038Z,7.90
2018-09-18T14:38:33.273Z,9.00
2018-09-18T14:41:01.472Z,4.67
2018-09-18T14:43:29.649Z,6.07
2018-09-18T14:45:58.089Z,8.63
2018-09-18T14:48:26.269Z,12.50
2018-09-18T14:50:54.407Z,4.43
2018-09-18T14:53:22.581Z,5.90
2018-09-18T14:55:50.777Z,9.90
2018-09-18T14:58:18.956Z,9.43
2018-09-18T15:00:47.120Z,6.60
2018-09-18T15:03:15.312Z,6.37
2018-09-18T15:05:43.631Z,13.83
2018-09-18T15:08:11.803Z,8.23
2018-09-18T15:10:39.969Z,8.67
2018-09-18T15:13:08.144Z,7.73
2018-09-18T15:15:36.329Z,8.77
2018-09-18T15:18:04.755Z,6.00
2018-09-18T15:20:32.905Z,11.33
2018-09-18T15:23:01.192Z,3.80
2018-09-18T15:25:29.378Z,6.40
2018-09-18T15:27:57.693Z,11.17
2018-09-18T15:30:25.896Z,11.30
2018-09-18T15:32:55.853Z,5.13
2018-09-18T15:35:24.112Z,7.43
2018-09-18T15:37:52.459Z,10.13
2018-09-18T15:40:20.657Z,8.50
2018-09-18T15:42:48.811Z,5.90
2018-09-18T15:45:17.024Z,7.20
2018-09-18T15:47:45.210Z,6.03
2018-09-18T15:50:13.465Z,12.70
2018-09-18T15:52:42.343Z,5.43
2018-09-18T15:55:11.379Z,5.93
2018-09-18T15:57:40.557Z,6.17
2018-09-18T16:00:08.777Z,19.30
2018-09-18T16:02:37.262Z,7.20
2018-09-18T16:05:06.010Z,8.73
2018-09-18T16:07:34.190Z,6.57
2018-09-18T16:10:02.419Z,5.50
2018-09-18T16:12:30.685Z,12.43
2018-09-18T16:14:58.949Z,9.83
2018-09-18T16:17:27.130Z,7.10
2018-09-18T16:19:55.721Z,4.50
2018-09-18T16:22:24.012Z,9.57
2018-09-18T16:24:52.427Z,9.20
2018-09-18T16:27:21.516Z,13.50
2018-09-18T16:29:49.699Z,14.57
2018-09-18T16:32:17.896Z,9.13
2018-09-18T16:34:46.053Z,10.13
2018-09-18T16:37:14.212Z,7.50
2018-09-18T16:39:42.410Z,12.53
2018-09-18T16:42:10.588Z,12.53
2018-09-18T16:44:39.340Z,16.53
2018-09-18T16:47:07.578Z,10.07
2018-09-18T16:49:35.828Z,6.90
2018-09-18T16:52:03.998Z,10.30
2018-09-18T16:54:32.316Z,9.43
2018-09-18T16:57:00.436Z,21.90
2018-09-18T16:59:28.593Z,15.47
2018-09-18T17:01:56.868Z,11.20
2018-09-18T17:04:25.248Z,10.30
2018-09-18T17:06:53.446Z,13.73
2018-09-18T17:09:21.607Z,7.23
2018-09-18T17:11:49.873Z,22.20
2018-09-18T17:14:18.092Z,14.33
2018-09-18T17:16:46.274Z,13.20
2018-09-18T17:19:14.535Z,19.40
2018-09-18T17:21:42.911Z,23.33
2018-09-18T17:24:11.155Z,19.50
2018-09-18T17:26:39.328Z,18.23
2018-09-18T17:29:07.570Z,40.37
2018-09-18T17:31:35.805Z,20.43
2018-09-18T17:34:04.255Z,13.00
2018-09-18T17:36:32.424Z,20.03
2018-09-18T17:39:00.644Z,18.90
2018-09-18T17:41:29.097Z,18.10
2018-09-18T17:43:57.255Z,26.97
2018-09-18T17:46:25.472Z,22.10
2018-09-18T17:48:53.780Z,23.03
2018-09-18T17:51:22.106Z,19.70
2018-09-18T17:53:50.378Z,17.57
2018-09-18T17:56:19.249Z,20.10
2018-09-18T17:58:47.500Z,16.43
2018-09-18T18:01:15.779Z,15.20
2018-09-18T18:03:44.285Z,23.07
2018-09-18T18:06:12.663Z,29.10
2018-09-18T18:08:40.832Z,20.90
2018-09-18T18:11:09.089Z,17.00
2018-09-18T18:13:37.322Z,27.80
2018-09-18T18:16:05.565Z,26.30
2018-09-18T18:18:33.912Z,22.80
2018-09-18T18:21:02.639Z,33.47
2018-09-18T18:23:32.413Z,22.73
2018-09-18T18:26:00.598Z,35.53
2018-09-18T18:28:28.809Z,22.27
2018-09-18T18:30:57.049Z,25.10
2018-09-18T18:33:30.337Z,17.10
2018-09-18T18:35:58.761Z,17.90
2018-09-18T18:38:27.051Z,17.37
2018-09-18T18:40:55.306Z,18.13
2018-09-18T18:43:23.502Z,20.57
2018-09-18T18:45:51.707Z,22.77
2018-09-18T18:48:20.084Z,21.60
2018-09-18T18:50:48.237Z,17.60
2018-09-18T18:53:16.528Z,18.53
2018-09-18T18:55:44.849Z,16.17
2018-09-18T18:58:13.026Z,16.53
2018-09-18T19:00:42.049Z,17.53
2018-09-18T19:03:10.238Z,32.80
2018-09-18T19:05:38.487Z,15.70
2018-09-18T19:08:06.719Z,16.20
2018-09-18T19:10:34.983Z,18.60
2018-09-18T19:13:03.253Z,17.07
2018-09-18T19:15:33.343Z,22.43
2018-09-18T19:18:01.653Z,21.50
2018-09-18T19:20:31.736Z,19.97
2018-09-18T19:22:59.960Z,20.97
2018-09-18T19:25:28.225Z,28.30
2018-09-18T19:27:58.363Z,31.57
2018-09-18T19:30:26.552Z,29.73
2018-09-18T19:32:54.858Z,23.13
2018-09-18T19:35:23.860Z,18.50
2018-09-18T19:37:52.113Z,25.60
2018-09-18T19:40:20.397Z,17.70
2018-09-18T19:42:48.899Z,28.50
2018-09-18T19:45:17.156Z,23.77
2018-09-18T19:47:45.452Z,26.33
2018-09-18T19:50:17.037Z,31.17
2018-09-18T19:52:46.380Z,22.57
2018-09-18T19:55:15.378Z,30.87
2018-09-18T19:57:43.696Z,30.33
2018-09-18T20:00:12.616Z,25.40
2018-09-18T20:02:41.526Z,33.50
2018-09-18T20:05:10.013Z,23.43
2018-09-18T20:07:38.246Z,23.90
2018-09-18T20:10:06.698Z,23.77
2018-09-18T20:12:34.921Z,18.37
2018-09-18T20:15:03.116Z,23.30
2018-09-18T20:17:31.389Z,27.03
2018-09-18T20:19:59.723Z,36.13
2018-09-18T20:22:28.462Z,26.07
2018-09-18T20:24:57.217Z,20.27
2018-09-18T20:27:26.083Z,27.63
2018-09-18T20:29:54.325Z,25.00
2018-09-18T20:32:22.662Z,20.83
2018-09-18T20:34:51.401Z,25.20
2018-09-18T20:37:19.688Z,26.70
2018-09-18T20:39:47.909Z,29.57
2018-09-18T20:42:17.047Z,22.07
2018-09-18T20:44:45.301Z,21.30
2018-09-18T20:47:13.558Z,26.23
2018-09-18T20:49:42.102Z,31.97
2018-09-18T20:52:10.337Z,25.60
2018-09-18T20:54:39.077Z,31.70
2018-09-18T20:57:07.269Z,22.93
2018-09-18T20:59:35.480Z,25.27
2018-09-18T21:02:03.707Z,29.47
2018-09-18T21:04:31.933Z,18.87
2018-09-18T21:07:00.253Z,23.03
2018-09-18T21:09:29.669Z,23.43
2018-09-18T21:11:58.121Z,28.47
2018-09-18T21:14:26.323Z,39.10
2018-09-18T21:16:54.513Z,24.57
2018-09-18T21:19:22.698Z,40.97
2018-09-18T21:21:50.881Z,32.57
2018-09-18T21:24:19.071Z,27.63
2018-09-18T21:26:47.267Z,21.07
2018-09-18T21:29:15.660Z,19.03
2018-09-18T21:31:43.827Z,17.77
2018-09-18T21:34:12.075Z,16.37
2018-09-18T21:36:40.277Z,28.57
2018-09-18T21:39:09.616Z,22.70
2018-09-18T21:41:37.835Z,15.00
2018-09-18T21:44:06.156Z,19.73
2018-09-18T21:46:34.338Z,18.93
2018-09-18T21:49:02.651Z,16.87
2018-09-18T21:51:30.861Z,22.70
2018-09-18T21:53:59.045Z,27.97
2018-09-18T21:56:27.230Z,18.50
2018-09-18T21:58:55.378Z,14.43
2018-09-18T22:01:24.260Z,20.23
2018-09-18T22:03:52.442Z,18.90
2018-09-18T22:06:20.652Z,14.60
2018-09-18T22:08:48.779Z,35.27
2018-09-18T22:11:17.204Z,23.87
2018-09-18T22:13:45.364Z,22.30
2018-09-18T22:16:13.535Z,17.03
2018-09-18T22:18:41.700Z,15.90
2018-09-18T22:21:09.899Z,17.93
2018-09-18T22:23:38.026Z,29.27
2018-09-18T22:26:06.283Z,16.83
2018-09-18T22:28:34.406Z,13.13
2018-09-18T22:31:02.804Z,19.47
2018-09-18T22:33:31.093Z,14.57
2018-09-18T22:35:59.349Z,14.73
2018-09-18T22:38:27.589Z,21.40
2018-09-18T22:40:56.481Z,20.10
2018-09-18T22:43:26.114Z,25.87
2018-09-18T22:45:54.270Z,19.00
2018-09-18T22:48:22.467Z,18.40
2018-09-18T22:50:50.589Z,15.80
2018-09-18T22:53:19.649Z,18.57
2018-09-18T22:55:47.831Z,17.30
2018-09-18T22:58:16.099Z,17.87
2018-09-18T23:00:44.273Z,21.80
2018-09-18T23:03:12.439Z,28.43
2018-09-18T23:05:40.592Z,18.30
2018-09-18T23:08:08.785Z,19.47
2018-09-18T23:10:36.955Z,14.63
2018-09-18T23:13:05.103Z,16.83
2018-09-18T23:15:33.282Z,14.60
2018-09-18T23:18:01.449Z,17.37
2018-09-18T23:20:29.687Z,25.53
2018-09-18T23:22:57.864Z,20.53
2018-09-18T23:25:26.043Z,21.03
2018-09-18T23:27:54.218Z,21.67
2018-09-18T23:30:22.391Z,19.10
2018-09-18T23:32:50.581Z,17.20
2018-09-18T23:35:18.864Z,17.97
2018-09-18T23:37:46.967Z,11.60
2018-09-18T23:40:15.178Z,19.63
2018-09-18T23:42:43.336Z,22.83
2018-09-18T23:45:11.477Z,16.90
2018-09-18T23:47:39.651Z,16.83
2018-09-18T23:50:07.786Z,11.83
2018-09-18T23:52:35.961Z,11.90
2018-09-18T23:55:04.122Z,14.93
2018-09-18T23:57:32.340Z,17.50
